Time;durP1;ratioP1;P1;durP2;ratioP2;P2;SDS_P1;SDS_P2;PMS_P1;PMS_P2;Temp;Humidity;BMP_temperature;BMP_pressure;BME280_temperature;BME280_humidity;BME280_pressure;Samples;Min_cycle;Max_cycle;Signal;HPM_P1;HPM_P2
2023/05/16 00:01:08;;;;;;;;;;;;;;;17.22;69.04;99944.22;5410846;32;36294;-88
2023/05/16 00:04:10;;;;;;;;;;;;;;;17.77;66.19;99932.13;5422201;32;35760;-87
2023/05/16 00:07:14;;;;;;;;;;;;;;;18.23;64.18;99941.91;5408033;32;33595;-87
2023/05/16 00:10:16;;;;;;;;;;;;;;;17.76;65.84;99933.09;5424504;32;46290;-87
2023/05/16 00:13:23;;;;;;;;;;;;;;;17.41;67.27;99935.75;5422979;32;33777;-87
2023/05/16 00:16:28;;;;;;;;;;;;;;;16.90;69.66;99930.66;5421878;32;35352;-87
2023/05/16 00:19:31;;;;;;;;;;;;;;;16.93;70.30;99927.75;5423857;32;34193;-87
2023/05/16 00:22:33;;;;;;;;;;;;;;;16.87;69.30;99921.06;5418703;32;37553;-87
2023/05/16 00:25:36;;;;;;;;;;;;;;;16.97;67.71;99921.28;5425809;32;34710;-87
2023/05/16 00:28:38;;;;;;;;;;;;;;;16.43;69.51;99922.44;5417511;32;34847;-87
2023/05/16 00:31:40;;;;;;;;;;;;;;;16.33;69.72;99918.72;5418924;32;35497;-88
2023/05/16 00:34:42;;;;;;;;;;;;;;;16.57;70.11;99912.66;5407560;32;35927;-86
2023/05/16 00:37:44;;;;;;;;;;;;;;;16.80;68.08;99922.47;5395224;32;36365;-87
2023/05/16 00:40:46;;;;;;;;;;;;;;;16.70;68.04;99924.97;5420785;32;44314;-86
2023/05/16 00:43:48;;;;;;;;;;;;;;;17.37;66.00;99931.59;5405269;32;34781;-87
2023/05/16 00:46:51;;;;;;;;;;;;;;;17.94;62.95;99921.06;5408536;32;35662;-87
2023/05/16 00:49:53;;;;;;;;;;;;;;;16.46;68.21;99926.66;5397403;32;35417;-87
2023/05/16 00:52:55;;;;;;;;;;;;;;;16.11;71.20;99923.84;5416090;32;35364;-87
2023/05/16 00:55:57;;;;;;;;;;;;;;;16.48;69.53;99930.06;5400845;32;34905;-88
2023/05/16 00:59:00;;;;;;;;;;;;;;;15.95;70.54;99929.34;5413116;32;34874;-87
2023/05/16 01:02:02;;;;;;;;;;;;;;;16.65;68.69;99939.47;5415073;32;34860;-86
2023/05/16 01:05:04;;;;;;;;;;;;;;;16.68;67.01;99940.13;5411069;32;34935;-87
2023/05/16 01:08:06;;;;;;;;;;;;;;;16.76;66.07;99943.09;5416211;32;35974;-87
2023/05/16 01:11:27;;;;;;;;;;;;;;;17.04;65.42;99944.59;5412960;32;36362;-87
2023/05/16 01:14:35;;;;;;;;;;;;;;;15.60;72.43;99943.16;5411691;32;35212;-87
2023/05/16 01:17:56;;;;;;;;;;;;;;;15.64;74.34;99951.75;5415596;32;34932;-87
2023/05/16 01:21:02;;;;;;;;;;;;;;;16.67;69.83;99961.44;5405010;32;35168;-86
2023/05/16 01:24:11;;;;;;;;;;;;;;;17.27;66.20;99958.03;5418398;32;34680;-86
2023/05/16 01:27:13;;;;;;;;;;;;;;;16.77;67.11;99946.59;5411208;32;36782;-87
2023/05/16 01:30:16;;;;;;;;;;;;;;;15.99;71.19;99946.75;5426383;32;38869;-86
2023/05/16 01:33:18;;;;;;;;;;;;;;;15.75;73.16;99959.00;5397009;32;34555;-89
2023/05/16 01:36:25;;;;;;;;;;;;;;;15.79;74.27;99952.56;5387494;32;35999;-86
2023/05/16 01:40:06;;;;;;;;;;;;;;;16.61;70.31;99949.44;5412462;32;34611;-87
2023/05/16 01:43:10;;;;;;;;;;;;;;;16.95;68.74;99950.59;5405312;32;36774;-87
2023/05/16 01:46:19;;;;;;;;;;;;;;;16.02;72.45;99941.22;5420453;32;34923;-87
2023/05/16 01:49:29;;;;;;;;;;;;;;;15.78;74.84;99921.69;5406764;32;44619;-87
2023/05/16 01:52:38;;;;;;;;;;;;;;;16.33;72.85;99916.09;5400228;32;36025;-87
2023/05/16 01:55:44;;;;;;;;;;;;;;;15.84;74.88;99923.91;5410896;32;35436;-87
2023/05/16 01:58:46;;;;;;;;;;;;;;;15.31;77.42;99918.59;5410600;32;45260;-86
2023/05/16 02:01:48;;;;;;;;;;;;;;;15.92;73.98;99900.41;5412125;32;35140;-87
2023/05/16 02:04:50;;;;;;;;;;;;;;;16.09;73.69;99891.28;5407785;32;36310;-86
2023/05/16 02:07:52;;;;;;;;;;;;;;;16.23;73.18;99892.03;5410132;32;36031;-87
2023/05/16 02:10:54;;;;;;;;;;;;;;;16.11;74.09;99897.34;5417821;32;34882;-87
2023/05/16 02:13:56;;;;;;;;;;;;;;;15.95;74.36;99900.19;5404424;32;34564;-87
2023/05/16 02:16:58;;;;;;;;;;;;;;;16.29;71.96;99898.69;5416645;32;34713;-87
2023/05/16 02:20:05;;;;;;;;;;;;;;;16.68;71.10;99900.31;5404454;32;36766;-87
2023/05/16 02:23:07;;;;;;;;;;;;;;;16.89;69.76;99907.72;5415247;32;35348;-87
2023/05/16 02:26:09;;;;;;;;;;;;;;;15.60;75.03;99907.88;5405589;32;36648;-87
2023/05/16 02:29:11;;;;;;;;;;;;;;;15.12;78.84;99905.72;5410116;32;34320;-87
2023/05/16 02:32:13;;;;;;;;;;;;;;;14.60;80.92;99895.84;5414415;32;35404;-87
2023/05/16 02:35:15;;;;;;;;;;;;;;;15.23;79.20;99881.19;5396053;32;35681;-87
2023/05/16 02:38:19;;;;;;;;;;;;;;;16.18;73.43;99878.25;5410121;32;44512;-87
2023/05/16 02:41:22;;;;;;;;;;;;;;;15.95;73.63;99871.03;5401442;32;35922;-87
2023/05/16 02:44:24;;;;;;;;;;;;;;;16.32;71.85;99863.16;5425811;32;35028;-87
2023/05/16 02:47:26;;;;;;;;;;;;;;;16.48;71.31;99863.75;5414703;32;33414;-87
2023/05/16 02:50:28;;;;;;;;;;;;;;;16.36;71.20;99883.19;5421883;32;36762;-87
2023/05/16 02:53:30;;;;;;;;;;;;;;;15.51;74.06;99896.09;5443616;32;34197;-86
2023/05/16 02:56:32;;;;;;;;;;;;;;;15.90;72.65;99889.91;5428590;32;36404;-87
2023/05/16 02:59:35;;;;;;;;;;;;;;;15.87;72.40;99891.94;5436580;32;35546;-87
2023/05/16 03:02:37;;;;;;;;;;;;;;;16.33;71.07;99899.31;5427178;32;34605;-86
2023/05/16 03:05:39;;;;;;;;;;;;;;;15.43;73.74;99904.53;5432059;32;34885;-86
2023/05/16 03:08:41;;;;;;;;;;;;;;;15.71;73.36;99894.75;5422047;32;36020;-86
2023/05/16 03:11:43;;;;;;;;;;;;;;;15.65;74.12;99887.25;5434253;32;34533;-86
2023/05/16 03:14:45;;;;;;;;;;;;;;;16.09;71.88;99868.25;5438431;32;34605;-86
2023/05/16 03:17:47;;;;;;;;;;;;;;;15.66;73.00;99875.72;5422562;32;44587;-87
2023/05/16 03:20:49;;;;;;;;;;;;;;;15.77;73.17;99864.34;5432639;32;34957;-87
2023/05/16 03:23:51;;;;;;;;;;;;;;;15.86;72.82;99874.34;5428698;32;34338;-87
2023/05/16 03:26:53;;;;;;;;;;;;;;;15.72;72.92;99882.41;5417065;32;35161;-87
2023/05/16 03:29:55;;;;;;;;;;;;;;;15.40;75.17;99888.03;5419000;32;34982;-86
2023/05/16 03:32:57;;;;;;;;;;;;;;;15.51;74.52;99898.72;5410316;32;34697;-86
2023/05/16 03:35:59;;;;;;;;;;;;;;;14.68;80.11;99911.22;5383610;32;34696;-86
2023/05/16 03:39:01;;;;;;;;;;;;;;;14.76;78.54;99916.06;5395514;32;34678;-86
2023/05/16 03:42:03;;;;;;;;;;;;;;;14.84;78.76;99906.66;5433761;32;35543;-87
2023/05/16 03:45:05;;;;;;;;;;;;;;;15.03;76.77;99897.53;5446048;32;36016;-87
2023/05/16 03:48:08;;;;;;;;;;;;;;;15.16;75.27;99903.72;5416290;32;34715;-88
2023/05/16 03:51:10;;;;;;;;;;;;;;;15.74;73.84;99889.28;5435329;32;35120;-86
2023/05/16 03:54:11;;;;;;;;;;;;;;;14.88;76.41;99878.22;5421255;32;35952;-87
2023/05/16 03:57:13;;;;;;;;;;;;;;;14.93;76.39;99878.75;5410367;32;35798;-87
2023/05/16 04:00:16;;;;;;;;;;;;;;;15.16;75.12;99883.41;5420057;32;38132;-87
2023/05/16 04:03:18;;;;;;;;;;;;;;;15.60;73.05;99876.94;5439755;32;34277;-87
2023/05/16 04:06:20;;;;;;;;;;;;;;;15.01;75.48;99886.22;5438042;32;34312;-87
2023/05/16 04:09:22;;;;;;;;;;;;;;;15.77;72.84;99875.81;5437172;32;33906;-87
2023/05/16 04:12:25;;;;;;;;;;;;;;;15.30;73.87;99881.63;5459895;32;33730;-87
2023/05/16 04:15:26;;;;;;;;;;;;;;;15.52;73.25;99888.97;5443535;32;35439;-86
2023/05/16 04:18:29;;;;;;;;;;;;;;;14.70;77.23;99887.34;5450212;32;35207;-86
2023/05/16 04:21:31;;;;;;;;;;;;;;;14.99;77.11;99890.75;5444383;32;35237;-86
2023/05/16 04:24:33;;;;;;;;;;;;;;;15.34;74.89;99910.47;5449955;32;36645;-87
2023/05/16 04:27:35;;;;;;;;;;;;;;;14.94;76.18;99909.59;5422059;32;34778;-87
2023/05/16 04:30:37;;;;;;;;;;;;;;;15.45;73.27;99893.84;5428388;32;35676;-86
2023/05/16 04:33:40;;;;;;;;;;;;;;;15.44;73.79;99892.16;5424182;32;35560;-87
2023/05/16 04:36:42;;;;;;;;;;;;;;;15.40;74.10;99903.91;5410637;32;35286;-87
2023/05/16 04:39:44;;;;;;;;;;;;;;;15.96;71.78;99904.53;5440569;32;36508;-88
2023/05/16 04:42:46;;;;;;;;;;;;;;;15.97;71.41;99906.22;5438885;32;43401;-88
2023/05/16 04:45:48;;;;;;;;;;;;;;;15.24;73.86;99906.72;5461640;32;34618;-88
2023/05/16 04:48:50;;;;;;;;;;;;;;;15.35;72.70;99906.00;5445733;32;34814;-87
2023/05/16 04:51:53;;;;;;;;;;;;;;;15.27;73.86;99913.62;5442844;32;35143;-87
2023/05/16 04:54:55;;;;;;;;;;;;;;;15.59;72.73;99914.97;5456065;32;35324;-89
2023/05/16 04:57:57;;;;;;;;;;;;;;;15.70;71.36;99917.75;5437859;32;34629;-88
2023/05/16 05:00:59;;;;;;;;;;;;;;;15.48;73.28;99922.78;5445384;32;36685;-86
2023/05/16 05:04:02;;;;;;;;;;;;;;;15.21;73.49;99933.41;5447406;32;34496;-87
2023/05/16 05:07:04;;;;;;;;;;;;;;;15.61;72.64;99926.31;5448721;32;35880;-87
2023/05/16 05:10:07;;;;;;;;;;;;;;;15.72;70.98;99935.38;5456486;32;34403;-87
2023/05/16 05:13:12;;;;;;;;;;;;;;;15.38;72.22;99919.03;5451495;32;34696;-86
2023/05/16 05:16:15;;;;;;;;;;;;;;;15.72;71.30;99919.47;5436766;32;36817;-87
2023/05/16 05:19:17;;;;;;;;;;;;;;;15.58;72.21;99934.44;5415483;32;44829;-86
2023/05/16 05:22:19;;;;;;;;;;;;;;;16.13;70.07;99937.84;5404669;32;35015;-86
2023/05/16 05:25:21;;;;;;;;;;;;;;;15.62;71.02;99949.22;5420943;32;33960;-88
2023/05/16 05:28:23;;;;;;;;;;;;;;;15.30;73.05;99940.72;5432875;32;35608;-87
2023/05/16 05:31:25;;;;;;;;;;;;;;;15.65;72.40;99930.50;5421886;32;36351;-89
2023/05/16 05:34:28;;;;;;;;;;;;;;;15.43;72.26;99920.44;5438559;32;35429;-87
2023/05/16 05:37:30;;;;;;;;;;;;;;;15.74;71.08;99917.56;5429608;32;34676;-86
2023/05/16 05:40:31;;;;;;;;;;;;;;;15.69;72.95;99933.75;5402167;32;35601;-87
2023/05/16 05:43:34;;;;;;;;;;;;;;;15.87;72.22;99929.88;5426968;32;37836;-88
2023/05/16 05:46:36;;;;;;;;;;;;;;;16.28;70.99;99923.50;5434469;32;34565;-85
2023/05/16 05:49:38;;;;;;;;;;;;;;;15.51;73.94;99919.06;5428494;32;37941;-88
2023/05/16 05:52:40;;;;;;;;;;;;;;;15.26;72.99;99919.84;5440546;32;35204;-88
2023/05/16 05:55:42;;;;;;;;;;;;;;;16.07;71.00;99915.25;5437635;32;34524;-88
2023/05/16 05:58:45;;;;;;;;;;;;;;;15.67;71.35;99930.38;5425665;32;34699;-87
2023/05/16 06:01:51;;;;;;;;;;;;;;;15.30;74.00;99937.22;5424196;32;45300;-87
2023/05/16 06:04:55;;;;;;;;;;;;;;;15.12;74.28;99936.62;5435189;32;35581;-88
2023/05/16 06:07:57;;;;;;;;;;;;;;;15.42;73.39;99933.78;5427552;32;35228;-87
2023/05/16 06:10:59;;;;;;;;;;;;;;;15.40;73.50;99933.91;5421745;32;36922;-88
2023/05/16 06:14:01;;;;;;;;;;;;;;;15.02;75.06;99920.50;5410178;32;34967;-85
2023/05/16 06:17:03;;;;;;;;;;;;;;;15.02;75.86;99911.72;5422590;32;34311;-88
2023/05/16 06:20:06;;;;;;;;;;;;;;;15.77;72.29;99907.59;5431702;32;34761;-88
2023/05/16 06:23:08;;;;;;;;;;;;;;;15.81;72.70;99905.59;5427950;32;35844;-87
2023/05/16 06:26:10;;;;;;;;;;;;;;;16.09;70.54;99899.22;5419965;32;34254;-86
2023/05/16 06:29:12;;;;;;;;;;;;;;;15.90;72.18;99915.56;5405715;32;35624;-87
2023/05/16 06:32:14;;;;;;;;;;;;;;;14.95;75.52;99919.22;5429887;32;34687;-87
2023/05/16 06:35:16;;;;;;;;;;;;;;;15.37;74.67;99907.59;5426282;32;44687;-87
2023/05/16 06:38:18;;;;;;;;;;;;;;;15.02;74.63;99904.63;5425716;32;35680;-87
2023/05/16 06:41:20;;;;;;;;;;;;;;;15.71;73.79;99900.06;5416203;32;34575;-86
2023/05/16 06:44:22;;;;;;;;;;;;;;;15.68;73.70;99906.44;5406517;32;34954;-86
2023/05/16 06:47:25;;;;;;;;;;;;;;;15.74;73.03;99899.03;5411543;32;34105;-89
2023/05/16 06:50:29;;;;;;;;;;;;;;;15.80;72.47;99904.75;5404672;32;35003;-87
2023/05/16 06:53:30;;;;;;;;;;;;;;;16.40;70.36;99903.25;5422609;32;35491;-86
2023/05/16 06:56:33;;;;;;;;;;;;;;;16.54;70.18;99897.78;5418834;32;34927;-87
2023/05/16 06:59:35;;;;;;;;;;;;;;;16.18;71.68;99907.41;5414429;32;34479;-87
2023/05/16 07:02:37;;;;;;;;;;;;;;;15.81;73.14;99905.59;5430947;32;33400;-87
2023/05/16 07:05:40;;;;;;;;;;;;;;;16.62;69.31;99908.72;5423888;32;35555;-88
2023/05/16 07:08:45;;;;;;;;;;;;;;;16.32;70.50;99914.38;5399405;32;35322;-88
2023/05/16 07:11:47;;;;;;;;;;;;;;;15.90;72.68;99911.09;5437036;32;44735;-87
2023/05/16 07:14:50;;;;;;;;;;;;;;;16.13;71.82;99906.03;5457406;32;35576;-87
2023/05/16 07:17:57;;;;;;;;;;;;;;;16.14;71.32;99913.03;5437763;32;33565;-88
2023/05/16 07:20:59;;;;;;;;;;;;;;;16.31;71.67;99909.19;5415300;32;34636;-87
2023/05/16 07:24:01;;;;;;;;;;;;;;;16.42;71.44;99907.50;5427841;32;35096;-88
2023/05/16 07:27:03;;;;;;;;;;;;;;;16.29;71.60;99898.69;5420333;32;33906;-85
2023/05/16 07:30:06;;;;;;;;;;;;;;;15.93;73.97;99900.31;5429720;32;34729;-87
2023/05/16 07:33:08;;;;;;;;;;;;;;;15.67;77.39;99894.13;5424953;32;33990;-86
2023/05/16 07:36:11;;;;;;;;;;;;;;;15.58;77.41;99889.41;5413460;32;35559;-86
2023/05/16 07:39:18;;;;;;;;;;;;;;;15.75;76.96;99890.97;5420526;32;44831;-86
2023/05/16 07:42:20;;;;;;;;;;;;;;;16.35;74.25;99889.44;5421318;32;34545;-85
2023/05/16 07:45:22;;;;;;;;;;;;;;;17.02;71.88;99889.94;5420666;32;34227;-86
2023/05/16 07:48:27;;;;;;;;;;;;;;;16.92;72.38;99894.22;5409754;32;34597;-86
2023/05/16 07:51:29;;;;;;;;;;;;;;;16.44;74.23;99896.78;5425934;32;33566;-87
2023/05/16 07:54:32;;;;;;;;;;;;;;;16.12;76.29;99888.44;5403755;32;34341;-86
2023/05/16 07:57:34;;;;;;;;;;;;;;;16.09;77.04;99892.13;5422705;32;35343;-87
2023/05/16 08:00:36;;;;;;;;;;;;;;;16.03;77.40;99892.56;5422914;32;36080;-87
2023/05/16 08:03:38;;;;;;;;;;;;;;;16.42;76.24;99886.28;5447377;32;34769;-87
2023/05/16 08:06:40;;;;;;;;;;;;;;;16.11;78.08;99887.59;5459392;32;36601;-88
2023/05/16 08:09:43;;;;;;;;;;;;;;;16.46;76.52;99882.44;5457499;32;34789;-87
2023/05/16 08:12:48;;;;;;;;;;;;;;;16.44;75.63;99883.50;5475673;32;45707;-87
2023/05/16 08:15:51;;;;;;;;;;;;;;;16.34;76.66;99899.22;5413519;32;34809;-87
2023/05/16 08:18:54;;;;;;;;;;;;;;;15.95;78.92;99887.78;5422780;32;35316;-87
2023/05/16 08:21:56;;;;;;;;;;;;;;;15.79;81.23;99897.75;5435317;32;35593;-87
2023/05/16 08:24:59;;;;;;;;;;;;;;;15.75;80.32;99903.38;5437520;32;35843;-88
2023/05/16 08:28:01;;;;;;;;;;;;;;;16.41;79.02;99895.16;5474129;32;34686;-90
2023/05/16 08:31:03;;;;;;;;;;;;;;;15.58;83.39;99899.16;5462098;32;34223;-90
2023/05/16 08:34:06;;;;;;;;;;;;;;;15.65;83.23;99905.81;5474111;32;35073;-87
2023/05/16 08:37:09;;;;;;;;;;;;;;;15.48;84.54;99893.66;5433463;32;35616;-88
2023/05/16 08:40:11;;;;;;;;;;;;;;;15.54;86.28;99882.66;5425224;32;35486;-87
2023/05/16 08:43:13;;;;;;;;;;;;;;;15.75;84.75;99879.53;5443788;32;35673;-89
2023/05/16 08:46:15;;;;;;;;;;;;;;;15.50;87.75;99885.59;5447962;32;33411;-88
2023/05/16 08:49:18;;;;;;;;;;;;;;;16.26;83.60;99859.13;5423579;32;44478;-87
2023/05/16 08:52:20;;;;;;;;;;;;;;;16.33;83.18;99871.00;5449489;32;35747;-88
2023/05/16 08:55:22;;;;;;;;;;;;;;;16.35;82.82;99874.38;5449292;32;36161;-89
2023/05/16 08:58:24;;;;;;;;;;;;;;;16.30;81.21;99875.69;5444257;32;35679;-89
2023/05/16 09:01:31;;;;;;;;;;;;;;;15.57;84.95;99879.78;5450411;32;35957;-88
2023/05/16 09:04:36;;;;;;;;;;;;;;;16.44;81.44;99875.56;5435098;32;33523;-87
2023/05/16 09:07:39;;;;;;;;;;;;;;;16.49;82.06;99868.97;5435729;32;34622;-89
2023/05/16 09:10:41;;;;;;;;;;;;;;;16.23;84.04;99869.97;5422242;32;35096;-89
2023/05/16 09:13:43;;;;;;;;;;;;;;;16.72;80.80;99867.31;5412161;32;35823;-88
2023/05/16 09:16:54;;;;;;;;;;;;;;;16.56;82.81;99865.88;5385563;32;43697;-87
2023/05/16 09:19:57;;;;;;;;;;;;;;;17.27;79.41;99863.25;5442219;32;35428;-88
2023/05/16 09:23:05;;;;;;;;;;;;;;;17.56;76.64;99868.16;5430936;32;35372;-86
2023/05/16 09:26:09;;;;;;;;;;;;;;;16.87;81.91;99862.69;5432899;32;34740;-87
2023/05/16 09:29:12;;;;;;;;;;;;;;;16.82;82.61;99862.19;5402830;32;35577;-87
2023/05/16 09:32:15;;;;;;;;;;;;;;;16.76;81.43;99863.50;5408533;32;34023;-86
2023/05/16 09:35:17;;;;;;;;;;;;;;;16.84;82.31;99865.56;5379095;32;47815;-88
2023/05/16 09:38:39;;;;;;;;;;;;;;;16.87;81.55;99864.50;5430923;32;34859;-88
2023/05/16 09:41:41;;;;;;;;;;;;;;;17.29;78.25;99855.16;5443975;32;33079;-88
2023/05/16 09:44:55;;;;;;;;;;;;;;;17.30;79.67;99851.53;5443226;32;34312;-87
2023/05/16 09:48:05;;;;;;;;;;;;;;;17.46;78.69;99867.19;5446185;32;34351;-86
2023/05/16 09:51:07;;;;;;;;;;;;;;;17.62;77.96;99859.72;5472750;32;34121;-87
2023/05/16 09:54:10;;;;;;;;;;;;;;;17.49;78.58;99861.63;5477086;32;33788;-88
2023/05/16 09:57:16;;;;;;;;;;;;;;;16.64;83.12;99859.03;5470783;32;34624;-89
2023/05/16 10:00:18;;;;;;;;;;;;;;;16.86;81.12;99860.16;5447541;32;44726;-87
2023/05/16 10:03:20;;;;;;;;;;;;;;;17.18;80.08;99850.66;5452740;32;35683;-88
2023/05/16 10:06:23;;;;;;;;;;;;;;;17.38;77.86;99861.56;5434406;32;34538;-87
2023/05/16 10:09:29;;;;;;;;;;;;;;;16.71;80.85;99865.63;5426755;32;33141;-88
2023/05/16 10:12:34;;;;;;;;;;;;;;;17.23;78.59;99853.81;5419000;32;34279;-88
2023/05/16 10:15:37;;;;;;;;;;;;;;;17.01;80.63;99854.56;5435302;32;34928;-89
2023/05/16 10:18:40;;;;;;;;;;;;;;;16.70;81.98;99857.78;5440943;32;36733;-89
2023/05/16 10:21:44;;;;;;;;;;;;;;;16.98;80.31;99853.94;5449563;32;35655;-88
2023/05/16 10:25:05;;;;;;;;;;;;;;;16.60;82.70;99852.25;5448592;32;43837;-87
2023/05/16 10:28:07;;;;;;;;;;;;;;;17.22;81.63;99840.66;5481916;32;35332;-88
2023/05/16 10:31:10;;;;;;;;;;;;;;;16.49;83.78;99836.28;5460307;32;36576;-89
2023/05/16 10:34:12;;;;;;;;;;;;;;;17.10;80.54;99831.78;5460910;32;34847;-88
2023/05/16 10:37:21;;;;;;;;;;;;;;;16.88;83.64;99832.56;5442103;32;35743;-89
2023/05/16 10:40:27;;;;;;;;;;;;;;;16.57;83.70;99823.31;5424616;32;44754;-91
2023/05/16 10:43:30;;;;;;;;;;;;;;;17.04;82.72;99825.13;5447280;32;33610;-88
2023/05/16 10:46:35;;;;;;;;;;;;;;;17.06;81.96;99817.03;5452457;32;35855;-87
2023/05/16 10:49:40;;;;;;;;;;;;;;;17.80;78.78;99815.81;5468489;32;35480;-87
2023/05/16 10:52:51;;;;;;;;;;;;;;;17.73;78.25;99827.88;5461052;32;33244;-87
2023/05/16 10:55:59;;;;;;;;;;;;;;;18.20;76.51;99812.66;5468034;32;35894;-88
2023/05/16 10:59:04;;;;;;;;;;;;;;;17.82;77.15;99807.72;5473041;32;36017;-89
2023/05/16 11:02:20;;;;;;;;;;;;;;;17.79;78.40;99792.00;5487699;32;34926;-89
2023/05/16 11:05:24;;;;;;;;;;;;;;;17.39;80.45;99789.75;5439521;32;44372;-88
2023/05/16 11:08:26;;;;;;;;;;;;;;;17.37;81.59;99780.19;5434645;32;35182;-89
2023/05/16 11:11:45;;;;;;;;;;;;;;;17.36;81.19;99783.81;5463231;32;35106;-87
2023/05/16 11:14:50;;;;;;;;;;;;;;;17.82;79.71;99783.78;5455256;32;43198;-88
2023/05/16 11:18:08;;;;;;;;;;;;;;;16.99;83.00;99774.19;5486802;32;36550;-89
2023/05/16 11:21:10;;;;;;;;;;;;;;;17.57;80.88;99771.53;5469614;32;35636;-87
2023/05/16 11:24:28;;;;;;;;;;;;;;;17.87;78.40;99755.88;5463206;32;35428;-85
2023/05/16 11:27:33;;;;;;;;;;;;;;;17.86;80.92;99743.56;5446354;32;35058;-85
2023/05/16 11:30:36;;;;;;;;;;;;;;;18.25;76.95;99737.81;5458680;32;36264;-88
2023/05/16 11:33:38;;;;;;;;;;;;;;;17.75;79.82;99735.59;5436661;32;35135;-88
2023/05/16 11:36:41;;;;;;;;;;;;;;;17.80;79.73;99736.06;5436678;32;34374;-87
2023/05/16 11:39:43;;;;;;;;;;;;;;;17.60;79.59;99732.31;5470131;32;34210;-88
2023/05/16 11:42:50;;;;;;;;;;;;;;;18.45;75.39;99754.81;5452822;32;42741;-88
2023/05/16 11:45:56;;;;;;;;;;;;;;;18.74;73.93;99740.00;5471297;32;33160;-89
2023/05/16 11:48:58;;;;;;;;;;;;;;;17.47;80.83;99754.63;5460480;32;34858;-87
2023/05/16 11:52:02;;;;;;;;;;;;;;;18.10;77.36;99739.91;5478105;32;34127;-87
2023/05/16 11:55:06;;;;;;;;;;;;;;;16.85;83.23;99731.91;5439634;32;33729;-87
2023/05/16 11:58:09;;;;;;;;;;;;;;;17.14;83.14;99731.53;5431000;32;36565;-86
2023/05/16 12:01:11;;;;;;;;;;;;;;;17.49;81.40;99729.63;5429806;32;34584;-87
2023/05/16 12:04:14;;;;;;;;;;;;;;;17.60;82.51;99727.00;5434727;32;36193;-88
2023/05/16 12:07:17;;;;;;;;;;;;;;;18.28;78.21;99722.44;5438661;32;43208;-87
2023/05/16 12:10:22;;;;;;;;;;;;;;;18.14;79.57;99715.59;5446182;32;34948;-89
2023/05/16 12:13:25;;;;;;;;;;;;;;;18.28;78.39;99711.81;5440035;32;37803;-91
2023/05/16 12:16:33;;;;;;;;;;;;;;;18.98;74.99;99699.81;5432858;32;35290;-87
2023/05/16 12:19:35;;;;;;;;;;;;;;;18.09;78.89;99717.78;5431160;32;35618;-87
2023/05/16 12:22:40;;;;;;;;;;;;;;;18.26;77.93;99708.44;5440905;32;34405;-87
2023/05/16 12:25:48;;;;;;;;;;;;;;;17.07;83.83;99712.56;5442471;32;34845;-88
2023/05/16 12:28:52;;;;;;;;;;;;;;;17.62;80.19;99724.19;5435527;32;44937;-89
2023/05/16 12:31:54;;;;;;;;;;;;;;;18.08;79.25;99726.72;5412043;32;34176;-87
2023/05/16 12:35:01;;;;;;;;;;;;;;;17.99;80.11;99729.28;5413643;32;33802;-87
2023/05/16 12:38:04;;;;;;;;;;;;;;;18.66;74.73;99727.31;5436742;32;33930;-88
2023/05/16 12:41:06;;;;;;;;;;;;;;;18.73;75.17;99724.13;5448253;32;33892;-88
2023/05/16 12:44:16;;;;;;;;;;;;;;;18.54;76.03;99717.63;5462245;32;36556;-89
2023/05/16 12:47:21;;;;;;;;;;;;;;;18.17;77.94;99714.50;5470318;32;44385;-87
2023/05/16 12:50:26;;;;;;;;;;;;;;;17.98;78.03;99724.94;5465466;32;37472;-88
2023/05/16 12:53:29;;;;;;;;;;;;;;;17.73;79.38;99726.91;5473837;32;33938;-90
2023/05/16 12:56:32;;;;;;;;;;;;;;;17.90;79.37;99727.34;5448577;32;35691;-89
2023/05/16 12:59:34;;;;;;;;;;;;;;;17.49;80.19;99728.78;5482653;32;34397;-89
2023/05/16 13:02:36;;;;;;;;;;;;;;;18.33;77.13;99712.28;5449643;32;34913;-89
2023/05/16 13:05:39;;;;;;;;;;;;;;;17.68;81.64;99720.22;5454328;32;34469;-88
2023/05/16 13:08:42;;;;;;;;;;;;;;;18.28;77.97;99710.97;5452913;32;36072;-88
2023/05/16 13:11:44;;;;;;;;;;;;;;;17.57;81.87;99713.09;5434842;32;34191;-88
2023/05/16 13:14:46;;;;;;;;;;;;;;;18.51;77.85;99701.94;5430871;32;45160;-86
2023/05/16 13:17:48;;;;;;;;;;;;;;;18.39;78.76;99697.63;5421250;32;37056;-88
2023/05/16 13:20:53;;;;;;;;;;;;;;;18.77;76.99;99691.81;5419527;32;33790;-91
2023/05/16 13:23:55;;;;;;;;;;;;;;;18.27;79.57;99680.87;5422099;32;37077;-87
2023/05/16 13:26:58;;;;;;;;;;;;;;;18.56;77.18;99683.78;5423028;32;36137;-89
2023/05/16 13:30:00;;;;;;;;;;;;;;;19.07;75.35;99666.25;5420626;32;34497;-88
2023/05/16 13:33:03;;;;;;;;;;;;;;;19.13;74.20;99660.38;5429106;32;34937;-91
2023/05/16 13:36:05;;;;;;;;;;;;;;;17.46;82.01;99654.66;5427163;32;34161;-89
2023/05/16 13:39:13;;;;;;;;;;;;;;;18.41;79.17;99655.78;5435395;32;34180;-90
2023/05/16 13:42:15;;;;;;;;;;;;;;;17.82;81.11;99646.41;5448758;32;36722;-89
2023/05/16 13:45:20;;;;;;;;;;;;;;;18.43;78.31;99621.94;5422331;32;35237;-89
2023/05/16 13:48:22;;;;;;;;;;;;;;;18.54;77.18;99621.00;5417879;32;33938;-88
2023/05/16 13:51:26;;;;;;;;;;;;;;;19.32;73.19;99625.84;5451574;32;34393;-87
2023/05/16 13:54:30;;;;;;;;;;;;;;;19.48;72.81;99630.66;5435910;32;35636;-87
2023/05/16 13:57:32;;;;;;;;;;;;;;;19.16;73.88;99626.31;5455129;32;34767;-88
2023/05/16 14:00:34;;;;;;;;;;;;;;;18.97;75.84;99634.22;5436397;32;34652;-89
2023/05/16 14:03:46;;;;;;;;;;;;;;;18.96;75.77;99627.19;5437070;32;45132;-88
2023/05/16 14:06:48;;;;;;;;;;;;;;;18.74;77.22;99617.56;5454378;32;34013;-90
2023/05/16 14:09:54;;;;;;;;;;;;;;;19.69;73.72;99610.13;5438834;32;944752;-88
2023/05/16 14:12:56;;;;;;;;;;;;;;;19.19;75.07;99601.22;5439424;32;34410;-86
2023/05/16 14:15:58;;;;;;;;;;;;;;;19.12;75.75;99616.06;5460236;32;34629;-88
2023/05/16 14:19:01;;;;;;;;;;;;;;;19.13;73.85;99610.63;5474289;32;33699;-89
2023/05/16 14:22:10;;;;;;;;;;;;;;;19.37;74.10;99604.94;5461779;32;34850;-89
2023/05/16 14:25:12;;;;;;;;;;;;;;;19.42;74.06;99601.88;5452448;32;35720;-89
2023/05/16 14:28:14;;;;;;;;;;;;;;;19.34;72.91;99609.72;5417784;32;35055;-89
2023/05/16 14:31:17;;;;;;;;;;;;;;;19.42;73.80;99616.06;5442996;32;45002;-89
2023/05/16 14:34:19;;;;;;;;;;;;;;;18.81;76.56;99616.06;5455662;32;32970;-88
2023/05/16 14:37:21;;;;;;;;;;;;;;;19.53;72.88;99627.59;5427251;32;37540;-88
2023/05/16 14:40:23;;;;;;;;;;;;;;;19.39;73.83;99634.97;5417776;32;32924;-88
2023/05/16 14:43:26;;;;;;;;;;;;;;;19.73;70.81;99632.88;5440793;32;36239;-88
2023/05/16 14:46:28;;;;;;;;;;;;;;;19.55;70.90;99637.13;5462328;32;34192;-88
2023/05/16 14:49:31;;;;;;;;;;;;;;;19.98;70.06;99630.69;5440962;32;36040;-89
2023/05/16 14:52:33;;;;;;;;;;;;;;;19.05;75.15;99638.88;5454634;32;34286;-88
2023/05/16 14:55:35;;;;;;;;;;;;;;;19.22;74.22;99648.91;5481913;32;34354;-89
2023/05/16 14:58:37;;;;;;;;;;;;;;;19.10;74.59;99634.84;5466336;32;34742;-87
2023/05/16 15:01:42;;;;;;;;;;;;;;;19.16;74.32;99625.47;5469748;32;35669;-87
2023/05/16 15:04:44;;;;;;;;;;;;;;;19.56;72.85;99620.16;5483306;32;33984;-87
2023/05/16 15:07:46;;;;;;;;;;;;;;;18.25;78.06;99626.13;5464892;32;44535;-89
2023/05/16 15:10:51;;;;;;;;;;;;;;;18.98;76.64;99625.25;5466730;32;36945;-87
2023/05/16 15:13:56;;;;;;;;;;;;;;;19.60;74.44;99626.09;5456444;32;34344;-88
2023/05/16 15:16:59;;;;;;;;;;;;;;;19.35;74.79;99630.91;5474902;32;34571;-88
2023/05/16 15:20:02;;;;;;;;;;;;;;;19.45;74.53;99637.13;5473705;32;34114;-90
2023/05/16 15:23:05;;;;;;;;;;;;;;;19.12;77.53;99632.03;5456646;32;36672;-89
2023/05/16 15:26:17;;;;;;;;;;;;;;;19.46;74.90;99630.81;5452374;32;44857;-91
2023/05/16 15:29:19;;;;;;;;;;;;;;;19.10;76.74;99628.66;5472673;32;35026;-89
2023/05/16 15:32:22;;;;;;;;;;;;;;;19.04;78.34;99635.37;5469804;32;34188;-87
2023/05/16 15:35:24;;;;;;;;;;;;;;;18.70;79.67;99632.09;5480291;32;36023;-88
2023/05/16 15:38:27;;;;;;;;;;;;;;;19.09;78.10;99627.84;5484033;32;34028;-90
2023/05/16 15:41:39;;;;;;;;;;;;;;;19.15;75.95;99613.16;5477154;32;35123;-89
2023/05/16 15:45:02;;;;;;;;;;;;;;;18.90;78.45;99617.91;5498880;32;34563;-89
2023/05/16 15:48:09;;;;;;;;;;;;;;;19.29;76.20;99609.28;5449803;32;34622;-89
2023/05/16 15:51:14;;;;;;;;;;;;;;;17.99;84.38;99607.00;5486517;32;36622;-89
2023/05/16 15:54:17;;;;;;;;;;;;;;;18.96;79.21;99597.91;5486612;32;45351;-89
2023/05/16 15:57:23;;;;;;;;;;;;;;;19.35;76.01;99585.59;5475365;32;34525;-90